EW0734 Weather Reports


Display with metric or nautical units.
time (UTC)temp
F
wind
direction
speed
MPH
gust
MPH
rain 1hr
in
rain 24hr
in
rain mn
in
humidity
%
barometer
mb
20221126222600 49 0.0 0.0 0.00 0.00 0.00 58 1016.9
20221126221541 51 0.0 0.0 0.00 0.00 0.00 55 1016.9
20221126220607 52 0.0 0.0 0.00 0.00 0.00 52 1016.9
20221126220040 53 0.0 0.0 0.00 0.00 0.00 50 1016.9
20221126215040 55 0.0 0.0 0.00 0.00 0.00 47 1016.8
20221126214040 57 0.0 0.0 0.00 0.00 0.00 42 1017.0
20221126213059 58 0.0 0.0 0.00 0.00 0.00 39 1017.1
20221126212541 58 0.0 1.0 0.00 0.00 0.00 38 1017.1
20221126211540 58 0.0 0.0 0.00 0.00 0.00 37 1017.0
20221126210615 59 0.0 0.0 0.00 0.00 0.00 36 1016.9
20221126205540 59 0.0 0.0 0.00 0.00 0.00 37 1017.0
20221126204542 59 0.0 1.0 0.00 0.00 0.00 38 1017.3
20221126203540 59 0.0 1.0 0.00 0.00 0.00 38 1017.5
20221126202542 60 0.0 1.0 0.00 0.00 0.00 38 1017.5
20221126201601 60 0.0 2.0 0.00 0.00 0.00 38 1017.6
20221126200542 61 0.0 1.0 0.00 0.00 0.00 37 1017.6
20221126195540 61 0.0 2.0 0.00 0.00 0.00 37 1017.6
20221126194540 61 0.0 1.0 0.00 0.00 0.00 37 1017.4
20221126193540 62 0.0 1.0 0.00 0.00 0.00 37 1017.5
20221126192621 62 0.0 1.0 0.00 0.00 0.00 37 1017.8
20221126191541 62 0.0 1.0 0.00 0.00 0.00 38 1017.9
20221126190610 62 0.0 2.0 0.00 0.00 0.00 37 1018.2
20221126185559 62 0.0 2.0 0.00 0.00 0.00 38 1018.1
20221126184540 62 0.0 2.0 0.00 0.00 0.00 36 1018.1
20221126183540 62 0.0 1.0 0.00 0.00 0.00 35 1018.0
20221126182621 62 0.0 1.0 0.00 0.00 0.00 36 1018.2
20221126181539 62 0.0 1.0 0.00 0.00 0.00 35 1018.3
20221126180615 62 0.0 3.0 0.00 0.00 0.00 36 1018.5
20221126175538 62 0.0 1.0 0.00 0.00 0.00 38 1018.4
20221126174540 61 0.0 2.0 0.00 0.00 0.00 37 1018.7
20221126173540 61 0.0 2.0 0.00 0.00 0.00 39 1018.9
20221126172540 60 0.0 1.0 0.00 0.00 0.00 40 1019.0
20221126171541 60 0.0 3.0 0.00 0.00 0.00 40 1019.4
20221126170601 60 0.0 1.0 0.00 0.00 0.00 41 1019.5
20221126165600 60 0.0 1.0 0.00 0.00 0.00 42 1019.7
20221126164538 60 0.0 1.0 0.00 0.00 0.00 42 1019.9
20221126163540 59 0.0 1.0 0.00 0.00 0.00 43 1020.1
20221126162540 59 0.0 3.0 0.00 0.00 0.00 44 1020.2
20221126161538 58 0.0 1.0 0.00 0.00 0.00 45 1020.3
20221126160615 58 0.0 1.0 0.00 0.00 0.00 47 1020.5
20221126155539 57 0.0 1.0 0.00 0.00 0.00 49 1020.7
20221126154539 56 0.0 1.0 0.00 0.00 0.00 50 1020.8
20221126153541 56 158 1.0 4.0 0.00 0.00 0.00 50 1021.0
20221126152545 56 0.0 1.0 0.00 0.00 0.00 54 1021.1
20221126151540 54 0.0 1.0 0.00 0.00 0.00 56 1021.1
20221126150616 54 0.0 2.0 0.00 0.00 0.00 58 1021.1
20221126145541 54 0.0 2.0 0.00 0.00 0.00 55 1021.1
20221126144605 55 0.0 1.0 0.00 0.00 0.00 55 1021.0
20221126143541 55 0.0 1.0 0.00 0.00 0.00 58 1020.9
20221126142559 54 0.0 0.0 0.00 0.00 0.00 61 1020.9
20221126141541 52 0.0 0.0 0.00 0.00 0.00 65 1020.8
20221126140538 51 0.0 0.0 0.00 0.00 0.00 71 1020.9
20221126135540 49 0.0 0.0 0.00 0.00 0.00 76 1020.7
20221126134539 45 0.0 0.0 0.00 0.00 0.00 85 1020.7
20221126133540 42 0.0 0.0 0.00 0.00 0.00 88 1020.6
20221126132539 36 0.0 0.0 0.00 0.00 0.00 92 1020.6
20221126131541 33 0.0 0.0 0.00 0.00 0.00 92 1020.5
20221126130622 31 0.0 0.0 0.00 0.00 0.00 92 1020.5
20221126125536 0 0.0 0.0 0.00 0.00 0.00
20221126124536 0 0.0 0.0 0.00 0.00 0.00
20221126124037 0 0.0 0.0 0.00 0.00 0.00
20221126123601 0 0.0 0.0 0.00 0.00 0.00
20221126123036 0 0.0 0.0 0.00 0.00 0.00
20221126122036 0 0.0 0.0 0.00 0.00 0.00
20221126121521 0 0.0 0.0 0.00 0.00 0.00
20221126121110 0 0.0 0.0 0.00 0.00 0.00
20221126120615 0 0.0 0.0 0.00 0.00 0.00
20221126115557 0 0.0 0.0 0.00 0.00 0.00
20221126115042 0 0.0 0.0 0.00 0.00 0.00
20221126114631 0 0.0 0.0 0.00 0.00 0.00
20221126113537 0 0.0 0.0 0.00 0.00 0.00
20221126112620 0 0.0 0.0 0.00 0.00 0.00
20221126111535 0 0.0 0.0 0.00 0.00 0.00
20221126110536 0 0.0 0.0 0.00 0.00 0.00
20221126110016 0 0.0 0.0 0.00 0.00 0.00
20221126105624 0 0.0 0.0 0.00 0.00 0.00
20221126105035 0 0.0 0.0 0.00 0.00 0.00
20221126104036 0 0.0 0.0 0.00 0.00 0.00
20221126103518 0 0.0 0.0 0.00 0.00 0.00
20221126103104 0 0.0 0.0 0.00 0.00 0.00
20221126101142 0 0.0 0.0 0.00 0.00 0.00
20221126100054 0 0.0 0.0 0.00 0.00 0.00
20221126095034 0 0.0 0.0 0.00 0.00 0.00
20221126094515 0 0.0 0.0 0.00 0.00 0.00
20221126094123 0 0.0 0.0 0.00 0.00 0.00
20221126093556 0 0.0 0.0 0.00 0.00 0.00
20221126092535 0 0.0 0.0 0.00 0.00 0.00
20221126092016 0 0.0 0.0 0.00 0.00 0.00
20221126091602 0 0.0 0.0 0.00 0.00 0.00
20221126090604 0 0.0 0.0 0.00 0.00 0.00
20221126090056 0 0.0 0.0 0.00 0.00 0.00
20221126085520 0 0.0 0.0 0.00 0.00 0.00
20221126085109 0 0.0 0.0 0.00 0.00 0.00
20221126084535 0 0.0 0.0 0.00 0.00 0.00
20221126083556 0 0.0 0.0 0.00 0.00 0.00
20221126083017 0 0.0 0.0 0.00 0.00 0.00
20221126082602 0 0.0 0.0 0.00 0.00 0.00
20221126081535 0 0.0 0.0 0.00 0.00 0.00
20221126080618 0 0.0 0.0 0.00 0.00 0.00
20221126080040 0 0.0 0.0 0.00 0.00 0.00
20221126075557 0 0.0 0.0 0.00 0.00 0.00
20221126074536 0 0.0 0.0 0.00 0.00 0.00
20221126074019 0 0.0 0.0 0.00 0.00 0.00
20221126073628 0 0.0 0.0 0.00 0.00 0.00
20221126072536 0 0.0 0.0 0.00 0.00 0.00
20221126071608 0 0.0 0.0 0.00 0.00 0.00
20221126071034 0 0.0 0.0 0.00 0.00 0.00
20221126070618 0 0.0 0.0 0.00 0.00 0.00
20221126065534 0 0.0 0.0 0.00 0.00 0.00
20221126065017 0 0.0 0.0 0.00 0.00 0.00
20221126064602 0 0.0 0.0 0.00 0.00 0.00
20221126063536 0 0.0 0.0 0.00 0.00 0.00
20221126062705 0 0.0 0.0 0.00 0.00 0.00 85
20221126061541 35 0.0 0.0 0.00 0.00 0.00 85 1018.1
20221126060607 36 0.0 0.0 0.00 0.00 0.00 84 1018.3
20221126055539 36 0.0 0.0 0.00 0.00 0.00 85 1018.1
20221126054539 36 0.0 0.0 0.00 0.00 0.00 82 1017.9
20221126053539 37 0.0 0.0 0.00 0.00 0.00 83 1017.9
20221126052539 37 0.0 0.0 0.00 0.00 0.00 83 1018.0
20221126051541 37 0.0 0.0 0.00 0.00 0.00 82 1017.9
20221126050554 38 0.0 1.0 0.00 0.00 0.00 80 1017.6
20221126045539 39 0.0 0.0 0.00 0.00 0.00 78 1017.5
20221126044540 39 0.0 0.0 0.00 0.00 0.00 77 1017.5
20221126043540 40 0.0 0.0 0.00 0.00 0.00 77 1017.2
20221126042538 40 0.0 0.0 0.00 0.00 0.00 76 1016.9
20221126041538 42 0.0 0.0 0.00 0.00 0.00 72 1016.8
20221126040606 43 0.0 0.0 0.00 0.00 0.00 71 1016.8
20221126035540 44 0.0 0.0 0.00 0.00 0.00 69 1016.8
20221126034540 44 0.0 1.0 0.00 0.00 0.00 66 1016.6
20221126033539 44 0.0 1.0 0.00 0.00 0.00 67 1016.3
20221126032602 43 0.0 1.0 0.00 0.00 0.00 71 1016.3
20221126031539 44 0.0 1.0 0.00 0.00 0.00 70 1016.5
20221126030608 45 0.0 0.0 0.00 0.00 0.00 68 1016.6
20221126025600 46 0.0 1.0 0.00 0.00 0.00 64 1016.7
20221126024540 47 0.0 0.0 0.00 0.00 0.00 61 1016.4
20221126023539 48 0.0 1.0 0.00 0.00 0.00 58 1016.2
20221126022540 49 0.0 0.0 0.00 0.00 0.00 57 1016.1
20221126021538 50 0.0 1.0 0.00 0.00 0.00 55 1016.1
20221126020539 50 0.0 2.0 0.00 0.00 0.00 53 1016.0
20221126015538 51 0.0 1.0 0.00 0.00 0.00 53 1015.7
20221126014539 51 0.0 3.0 0.00 0.00 0.00 53 1015.7
20221126013539 51 0.0 2.0 0.00 0.00 0.00 52 1015.5
20221126012540 51 0.0 3.0 0.00 0.00 0.00 53 1015.3
20221126011540 51 0.0 2.0 0.00 0.00 0.00 54 1015.1
20221126010610 51 270 1.0 4.0 0.00 0.00 0.00 54 1014.9
20221126005559 51 0.0 4.0 0.00 0.00 0.00 55 1014.9
20221126004538 50 0.0 1.0 0.00 0.00 0.00 56 1015.2
20221126003541 50 0.0 1.0 0.00 0.00 0.00 59 1015.0
20221126002600 49 0.0 1.0 0.00 0.00 0.00 60 1014.9
20221126001539 50 0.0 1.0 0.00 0.00 0.00 61 1014.9
20221126000617 51 0.0 4.0 0.00 0.00 0.00 62 1014.6
20221125235540 51 0.0 0.0 0.00 0.00 0.00 58 1014.3
20221125234538 52 0.0 1.0 0.00 0.00 0.00 58 1014.0
20221125233541 52 0.0 1.0 0.00 0.00 0.00 57 1014.0
20221125232539 53 0.0 1.0 0.00 0.00 0.00 55 1013.7
20221125231539 54 0.0 1.0 0.00 0.00 0.00 54 1013.6
20221125230544 54 0.0 1.0 0.00 0.00 0.00 53 1013.6
20221125225600 55 0.0 1.0 0.00 0.00 0.00 54 1013.3
20221125224541 55 23 1.0 5.0 0.00 0.00 0.00 54 1013.1
20221125223540 55 0.0 3.0 0.00 0.00 0.00 55 1013.0